Time;durP1;ratioP1;P1;durP2;ratioP2;P2;SDS_P1;SDS_P2;PMS_P1;PMS_P2;Temp;Humidity;BMP_temperature;BMP_pressure;BME280_temperature;BME280_humidity;BME280_pressure;Samples;Min_cycle;Max_cycle;Signal;HPM_P1;HPM_P2
2022/11/03 00:00:44;;;;;;;64.47;31.77;;;;;;;11.00;100.00;101139.52;1496444;85;21520;-87
2022/11/03 00:03:10;;;;;;;67.73;35.10;;;;;;;11.03;100.00;101147.69;1526078;84;21493;-87
2022/11/03 00:08:21;;;;;;;70.57;35.57;;;;;;;11.03;100.00;101151.17;1519462;84;22386;-85
2022/11/03 00:10:47;;;;;;;65.80;34.73;;;;;;;11.07;100.00;101153.06;1518973;84;21507;-83
2022/11/03 00:13:13;;;;;;;74.07;36.20;;;;;;;11.10;100.00;101154.12;1518199;84;21352;-87
2022/11/03 00:15:48;;;;;;;65.63;35.10;;;;;;;11.14;100.00;101162.17;1521639;84;21449;-89
2022/11/03 00:18:15;;;;;;;56.53;32.47;;;;;;;11.17;100.00;101160.58;1524337;84;21477;-86
2022/11/03 00:20:40;;;;;;;56.47;31.47;;;;;;;11.20;100.00;101158.98;1520868;84;21470;-90
2022/11/03 00:23:06;;;;;;;68.17;35.40;;;;;;;11.20;100.00;101161.63;1518305;84;22255;-90
2022/11/03 00:25:32;;;;;;;63.43;35.37;;;;;;;11.22;100.00;101165.00;1521885;84;21501;-87
2022/11/03 00:27:58;;;;;;;68.20;37.00;;;;;;;11.24;100.00;101167.50;1528537;84;22516;-89
2022/11/03 00:30:24;;;;;;;74.83;36.57;;;;;;;11.23;100.00;101169.80;1519560;84;21498;-84
2022/11/03 00:32:50;;;;;;;69.37;36.37;;;;;;;11.21;100.00;101170.41;1520947;84;22802;-87
2022/11/03 00:35:16;;;;;;;67.70;36.13;;;;;;;11.20;100.00;101172.23;1519033;84;21411;-87
2022/11/03 00:37:42;;;;;;;63.20;34.17;;;;;;;11.22;100.00;101170.30;1518147;84;21410;-88
2022/11/03 00:40:10;;;;;;;69.87;35.73;;;;;;;11.25;100.00;101172.67;1515838;84;21454;-89
2022/11/03 00:42:37;;;;;;;66.20;35.87;;;;;;;11.27;100.00;101169.38;1523422;84;23419;-89
2022/11/03 00:45:05;;;;;;;65.87;35.57;;;;;;;11.30;100.00;101162.98;1512206;84;21425;-91
2022/11/03 00:47:31;;;;;;;66.57;36.97;;;;;;;11.29;100.00;101170.09;1526998;84;22140;-85
2022/11/03 00:49:57;;;;;;;67.97;37.17;;;;;;;11.26;100.00;101174.34;1520950;84;21505;-88
2022/11/03 00:52:23;;;;;;;65.33;35.43;;;;;;;11.21;100.00;101172.57;1523202;84;21521;-89
2022/11/03 00:54:49;;;;;;;70.60;38.33;;;;;;;11.20;100.00;101176.20;1523372;84;21625;-84
2022/11/03 00:57:15;;;;;;;71.37;37.90;;;;;;;11.17;100.00;101173.83;1518514;84;22291;-81
2022/11/03 00:59:41;;;;;;;70.80;36.83;;;;;;;11.15;100.00;101169.14;1523275;84;21418;-85
2022/11/03 01:02:07;;;;;;;60.83;34.80;;;;;;;11.12;100.00;101165.92;1515860;84;21426;-85
2022/11/03 01:07:20;;;;;;;65.33;35.07;;;;;;;11.12;100.00;101168.08;1517354;84;22541;-83
2022/11/03 01:09:46;;;;;;;73.30;36.67;;;;;;;11.07;100.00;101161.01;1520564;84;22489;-87
2022/11/03 01:12:16;;;;;;;75.97;37.23;;;;;;;11.03;100.00;101155.64;1518541;84;21344;-85
2022/11/03 01:14:49;;;;;;;61.60;34.78;;;;;;;10.99;100.00;101160.37;1516162;84;22556;-86
2022/11/03 01:17:24;;;;;;;67.83;34.77;;;;;;;11.01;100.00;101164.19;1512251;84;21455;-83
2022/11/03 01:19:51;;;;;;;70.57;36.03;;;;;;;11.04;100.00;101158.63;1519396;84;21581;-85
2022/11/03 01:22:18;;;;;;;67.07;35.37;;;;;;;11.08;100.00;101152.11;1524384;84;22587;-85
2022/11/03 01:24:45;;;;;;;61.73;33.03;;;;;;;11.12;100.00;101154.00;1508465;84;22731;-85
2022/11/03 01:27:18;;;;;;;77.60;39.90;;;;;;;11.12;100.00;101152.19;1511537;84;21595;-88
2022/11/03 01:29:44;;;;;;;66.50;35.83;;;;;;;11.11;100.00;101142.57;1520369;84;21521;-85
2022/11/03 01:32:10;;;;;;;71.63;38.10;;;;;;;11.11;100.00;101147.88;1523556;84;21419;-87
2022/11/03 01:34:38;;;;;;;76.70;37.97;;;;;;;11.11;100.00;101144.39;1521381;84;21420;-80
2022/11/03 01:37:05;;;;;;;70.13;36.97;;;;;;;11.14;100.00;101146.27;1521232;84;22474;-82
2022/11/03 01:39:31;;;;;;;58.27;33.07;;;;;;;11.16;100.00;101140.33;1521504;83;21418;-85
2022/11/03 01:41:57;;;;;;;71.57;36.63;;;;;;;11.18;100.00;101134.42;1523680;84;21557;-84
2022/11/03 01:44:29;;;;;;;71.13;38.17;;;;;;;11.19;100.00;101125.52;1524506;84;22791;-85
2022/11/03 01:47:16;;;;;;;64.30;33.87;;;;;;;11.17;100.00;101127.45;1514891;84;21396;-83
2022/11/03 01:50:05;;;;;;;69.67;36.23;;;;;;;11.11;100.00;101130.65;1516278;84;21476;-86
2022/11/03 01:52:43;;;;;;;66.07;36.97;;;;;;;11.05;100.00;101145.76;1517433;84;22029;-84
2022/11/03 01:55:17;;;;;;;64.80;35.77;;;;;;;11.01;100.00;101143.00;1513783;84;21674;-87
2022/11/03 01:57:55;;;;;;;70.27;36.57;;;;;;;10.99;100.00;101148.91;1516687;84;21456;-88
2022/11/03 02:00:21;;;;;;;64.50;34.60;;;;;;;10.94;100.00;101150.65;1522023;84;21559;-86
2022/11/03 02:02:49;;;;;;;68.00;35.10;;;;;;;10.96;100.00;101147.85;1524718;84;22736;-82
2022/11/03 02:05:15;;;;;;;59.70;31.00;;;;;;;10.97;100.00;101146.91;1526376;84;22239;-88
2022/11/03 02:08:04;;;;;;;69.23;34.97;;;;;;;11.01;100.00;101149.63;1498452;84;21522;-90
2022/11/03 02:10:30;;;;;;;73.77;39.97;;;;;;;11.05;100.00;101153.70;1510911;84;21506;-90
2022/11/03 02:12:57;;;;;;;67.43;36.70;;;;;;;11.07;100.00;101145.12;1513139;84;21507;-91
2022/11/03 02:15:23;;;;;;;62.97;34.87;;;;;;;11.06;100.00;101142.13;1518684;84;21361;-87
2022/11/03 02:17:53;;;;;;;73.30;38.57;;;;;;;11.06;100.00;101140.80;1511657;84;21410;-87
2022/11/03 02:20:26;;;;;;;68.30;35.90;;;;;;;11.05;100.00;101136.48;1517497;84;21410;-89
2022/11/03 02:23:26;;;;;;;77.20;37.97;;;;;;;11.07;100.00;101137.17;1520081;84;21462;-88
2022/11/03 02:25:57;;;;;;;71.40;38.50;;;;;;;11.07;100.00;101141.98;1513880;84;21410;-87
2022/11/03 02:28:29;;;;;;;78.70;38.67;;;;;;;11.07;100.00;101137.17;1518983;84;22413;-87
2022/11/03 02:31:16;;;;;;;67.20;37.03;;;;;;;11.10;100.00;101134.25;1517014;84;21617;-84
2022/11/03 02:34:00;;;;;;;76.27;39.63;;;;;;;11.08;100.00;101126.95;1520996;84;21388;-88
2022/11/03 02:36:40;;;;;;;75.37;37.50;;;;;;;11.08;100.00;101126.95;1495699;87;22238;-90
2022/11/03 02:39:26;;;;;;;;;;;;;;;11.05;100.00;101132.52;1489857;86;21455;-89
2022/11/03 02:41:54;;;;;;;75.87;37.60;;;;;;;11.00;100.00;101134.22;1486299;86;20288;-90
2022/11/03 02:44:23;;;;;;;78.63;39.00;;;;;;;10.96;100.00;101133.28;1485128;87;21499;-82
2022/11/03 02:46:55;;;;;;;79.30;39.03;;;;;;;10.94;100.00;101128.63;1498900;84;21410;-91
2022/11/03 02:49:21;;;;;;;74.07;37.10;;;;;;;10.92;100.00;101128.75;1521411;84;21620;-90
2022/11/03 02:51:47;;;;;;;67.70;38.17;;;;;;;10.93;100.00;101130.91;1516692;84;21381;-88
2022/11/03 02:54:27;;;;;;;72.97;37.43;;;;;;;10.91;100.00;101129.73;1520422;84;22484;-85
2022/11/03 02:57:04;;;;;;;73.25;38.98;;;;;;;10.87;100.00;101125.65;1515506;84;21602;-88
2022/11/03 02:59:39;;;;;;;76.87;38.20;;;;;;;10.83;100.00;101133.52;1524256;84;22386;-85
2022/11/03 03:02:13;;;;;;;82.43;39.17;;;;;;;10.78;100.00;101125.95;1515728;84;22381;-80
2022/11/03 03:04:50;;;;;;;64.13;34.73;;;;;;;10.76;100.00;101127.92;1520729;84;21513;-82
2022/11/03 03:07:27;;;;;;;63.77;33.93;;;;;;;10.73;100.00;101126.86;1524000;84;22261;-85
2022/11/03 03:10:11;;;;;;;74.80;37.33;;;;;;;10.73;100.00;101126.86;1515512;84;21529;-85
2022/11/03 03:12:42;;;;;;;76.27;37.97;;;;;;;10.71;100.00;101136.73;1525619;84;21463;-87
2022/11/03 03:15:09;;;;;;;76.63;39.87;;;;;;;10.69;100.00;101131.22;1524932;84;21426;-90
2022/11/03 03:17:43;;;;;;;71.07;39.13;;;;;;;10.61;100.00;101127.89;1517548;84;22177;-83
2022/11/03 03:20:26;;;;;;;68.30;35.13;;;;;;;10.57;100.00;101131.78;1522172;84;21461;-87
2022/11/03 03:23:06;;;;;;;76.60;37.20;;;;;;;10.54;100.00;101129.39;1515842;84;21514;-87
2022/11/03 03:25:37;;;;;;;69.07;36.48;;;;;;;10.52;100.00;101130.00;1522502;84;21425;-93
2022/11/03 03:28:09;;;;;;;71.73;35.00;;;;;;;10.50;100.00;101135.89;1520210;84;22240;-89
2022/11/03 03:30:36;;;;;;;68.20;35.53;;;;;;;10.47;100.00;101146.28;1528344;84;21619;-88
2022/11/03 03:33:06;;;;;;;76.37;39.30;;;;;;;10.45;100.00;101148.21;1516109;84;21530;-89
2022/11/03 03:35:33;;;;;;;68.50;37.07;;;;;;;10.42;100.00;101149.80;1513257;84;21477;-87
2022/11/03 03:38:04;;;;;;;69.47;35.43;;;;;;;10.39;100.00;101156.19;1516187;84;21454;-89
2022/11/03 03:40:33;;;;;;;;;;;;;;;10.33;100.00;101154.05;1517691;84;21457;-89
2022/11/03 03:43:03;;;;;;;69.77;34.27;;;;;;;10.24;100.00;101161.41;1522572;84;20339;-88
2022/11/03 03:45:31;;;;;;;62.33;35.53;;;;;;;10.18;100.00;101175.12;1519711;84;21593;-92
2022/11/03 03:47:58;;;;;;;69.50;35.73;;;;;;;10.20;100.00;101173.69;1517468;84;22416;-90
2022/11/03 03:50:28;;;;;;;67.57;36.10;;;;;;;10.22;100.00;101168.63;1517681;84;21440;-90
2022/11/03 03:53:02;;;;;;;73.07;36.40;;;;;;;10.24;100.00;101165.37;1522968;84;21680;-87
2022/11/03 03:55:41;;;;;;;74.10;37.87;;;;;;;10.26;100.00;101165.23;1525597;84;22467;-91
2022/11/03 03:58:13;;;;;;;86.13;38.63;;;;;;;10.29;100.00;101157.07;1518043;84;21411;-91
2022/11/03 04:00:40;;;;;;;69.30;37.90;;;;;;;10.30;100.00;101158.73;1526041;84;21478;-92
2022/11/03 04:03:17;;;;;;;73.07;35.43;;;;;;;10.31;100.00;101157.80;1518744;84;21383;-85
2022/11/03 04:05:45;;;;;;;72.37;35.10;;;;;;;10.30;100.00;101156.95;1525003;84;21527;-87
2022/11/03 04:08:12;;;;;;;70.13;37.33;;;;;;;10.32;100.00;101160.78;1528414;84;21412;-86
2022/11/03 04:10:39;;;;;;;72.73;36.77;;;;;;;10.34;100.00;101162.83;1523553;84;22372;-83
2022/11/03 04:23:51;;;;;;;77.90;39.57;;;;;;;10.29;100.00;101151.78;1514181;84;21353;-88
2022/11/03 04:26:22;;;;;;;67.60;35.10;;;;;;;10.30;100.00;101153.45;1528385;84;21528;-89
2022/11/03 04:28:51;;;;;;;64.53;35.07;;;;;;;10.33;100.00;101151.41;1519559;84;21381;-90
2022/11/03 04:31:18;;;;;;;73.07;36.77;;;;;;;10.37;100.00;101146.20;1524122;84;22030;-83
2022/11/03 04:33:45;;;;;;;72.27;37.40;;;;;;;10.43;100.00;101141.37;1520541;84;21358;-87
2022/11/03 04:36:21;;;;;;;73.07;39.50;;;;;;;10.44;100.00;101145.19;1496444;84;21493;-87
2022/11/03 04:38:49;;;;;;;72.63;35.77;;;;;;;10.50;100.00;101150.00;1524446;84;21601;-82
2022/11/03 04:41:22;;;;;;;80.33;38.37;;;;;;;10.55;100.00;101146.45;1530841;84;21698;-86
2022/11/03 04:43:50;;;;;;;74.00;35.53;;;;;;;10.57;100.00;101153.79;1512954;84;22518;-87
2022/11/03 04:46:25;;;;;;;69.50;35.60;;;;;;;10.55;100.00;101152.23;1512952;84;21713;-84
2022/11/03 04:48:53;;;;;;;67.63;34.70;;;;;;;10.57;100.00;101165.70;1516057;84;21409;-85
2022/11/03 04:51:24;;;;;;;71.87;36.67;;;;;;;10.56;100.00;101160.06;1520225;84;21396;-88
2022/11/03 04:53:54;;;;;;;67.37;33.58;;;;;;;10.60;100.00;101158.82;1518176;84;21595;-86
2022/11/03 04:56:24;;;;;;;66.72;34.95;;;;;;;10.64;100.00;101154.09;1530839;84;21417;-82
2022/11/03 04:58:52;;;;;;;67.87;37.13;;;;;;;10.68;100.00;101159.50;1522993;84;21367;-85
2022/11/03 05:01:21;;;;;;;68.43;37.13;;;;;;;10.69;100.00;101154.55;1518147;84;21454;-85
2022/11/03 05:03:52;;;;;;;63.43;36.03;;;;;;;10.71;100.00;101157.92;1518202;84;21361;-87
2022/11/03 05:06:28;;;;;;;64.82;34.55;;;;;;;10.70;100.00;101160.19;1520589;84;21588;-85
2022/11/03 05:09:00;;;;;;;60.03;33.43;;;;;;;10.71;100.00;101167.67;1521804;84;21424;-88
2022/11/03 05:11:37;;;;;;;61.23;33.57;;;;;;;10.69;100.00;101171.77;1513284;84;21470;-86
2022/11/03 05:14:26;;;;;;;63.83;33.07;;;;;;;10.69;100.00;101176.22;1464148;88;22276;-87
2022/11/03 05:16:54;;;;;;;57.13;32.37;;;;;;;10.72;100.00;101180.77;1466784;88;21640;-87
2022/11/03 05:19:25;;;;;;;63.33;34.67;;;;;;;10.73;100.00;101186.44;1486982;85;21555;-88
2022/11/03 05:21:53;;;;;;;67.83;36.83;;;;;;;10.80;100.00;101186.25;1463612;88;21560;-86
2022/11/03 05:24:24;;;;;;;76.63;36.93;;;;;;;10.83;100.00;101194.42;1477519;87;22306;-84
2022/11/03 05:26:49;;;;;;;66.13;35.00;;;;;;;10.83;100.00;101192.61;1462196;87;21558;-85
2022/11/03 05:29:31;;;;;;;65.53;34.00;;;;;;;10.84;100.00;101200.89;1477332;87;21368;-85
2022/11/03 05:31:57;;;;;;;60.87;32.43;;;;;;;10.80;100.00;101206.60;1482314;87;22306;-84
2022/11/03 05:34:32;;;;;;;68.03;35.50;;;;;;;10.77;100.00;101205.05;1489344;87;21447;-84
2022/11/03 05:37:10;;;;;;;72.87;34.93;;;;;;;10.79;100.00;101204.45;1473765;87;22909;-87
2022/11/03 05:39:45;;;;;;;67.37;36.67;;;;;;;10.83;100.00;101200.55;1473040;87;23379;-88
2022/11/03 05:42:36;;;;;;;67.93;36.37;;;;;;;10.86;100.00;101203.43;1489155;87;22384;-88
2022/11/03 05:45:20;;;;;;;64.20;34.37;;;;;;;10.81;100.00;101210.42;1467790;87;21470;-86
2022/11/03 05:47:47;;;;;;;71.40;34.93;;;;;;;10.77;100.00;101205.05;1476267;87;22403;-86
2022/11/03 05:50:26;;;;;;;66.90;35.37;;;;;;;10.76;100.00;101208.67;1482849;87;22420;-87
2022/11/03 05:53:00;;;;;;;64.23;35.93;;;;;;;10.75;100.00;101213.59;1525946;84;21426;-89
2022/11/03 05:55:34;;;;;;;73.67;37.63;;;;;;;10.74;100.00;101217.72;1510309;84;21380;-85
2022/11/03 05:58:23;;;;;;;81.70;41.27;;;;;;;10.76;100.00;101215.76;1520841;84;21470;-89
2022/11/03 06:00:49;;;;;;;81.53;36.60;;;;;;;10.80;100.00;101216.70;1516551;84;21433;-83
2022/11/03 06:03:24;;;;;;;78.13;39.17;;;;;;;10.82;100.00;101212.62;1518242;84;22453;-88
2022/11/03 06:05:51;;;;;;;75.87;40.40;;;;;;;10.84;100.00;101215.95;1518233;84;21500;-87
2022/11/03 06:08:22;;;;;;;78.03;40.70;;;;;;;10.88;100.00;101220.04;1523889;84;21580;-84
2022/11/03 06:10:56;;;;;;;71.70;35.60;;;;;;;10.94;100.00;101222.65;1519557;84;21839;-84
2022/11/03 06:13:36;;;;;;;75.00;36.57;;;;;;;10.99;100.00;101220.42;1520083;84;21368;-87
2022/11/03 06:16:09;;;;;;;;;;;;;;;11.03;100.00;101221.86;1525030;84;21508;-90
2022/11/03 06:18:37;;;;;;;93.53;38.67;;;;;;;11.08;100.00;101226.28;1488217;84;20536;-88
2022/11/03 06:21:17;;;;;;;82.57;38.00;;;;;;;11.14;100.00;101219.13;1445647;84;21479;-86
2022/11/03 06:23:43;;;;;;;81.65;41.92;;;;;;;11.18;100.00;101223.19;1514953;84;21587;-85
2022/11/03 06:26:18;;;;;;;90.93;43.33;;;;;;;11.20;100.00;101226.55;1527233;84;22484;-87
2022/11/03 06:28:45;;;;;;;89.57;43.43;;;;;;;11.20;100.00;101223.90;1517930;84;21433;-85
2022/11/03 06:33:38;;;;;;;87.80;41.77;;;;;;;11.23;100.00;101226.28;1523000;83;25719;-86
2022/11/03 06:36:18;;;;;;;80.47;40.13;;;;;;;11.17;100.00;101234.77;1494950;84;23077;-88
2022/11/03 06:38:49;;;;;;;85.60;43.67;;;;;;;11.16;100.00;101230.91;1487851;85;22035;-87
2022/11/03 06:41:31;;;;;;;85.37;39.90;;;;;;;11.13;100.00;101237.30;1502026;85;21655;-88
2022/11/03 06:43:59;;;;;;;87.70;41.47;;;;;;;11.12;100.00;101240.94;1498029;85;21522;-86
2022/11/03 06:46:26;;;;;;;66.13;35.83;;;;;;;11.13;100.00;101239.12;1486783;85;21454;-82
2022/11/03 06:49:00;;;;;;;57.60;34.37;;;;;;;11.10;100.00;101249.98;1505208;85;22515;-79
2022/11/03 06:51:29;;;;;;;54.03;30.93;;;;;;;11.05;100.00;101253.87;1517177;88;21347;-81
2022/11/03 06:53:58;;;;;;;63.40;31.20;;;;;;;11.04;100.00;101253.98;1414897;88;21427;-82
2022/11/03 06:56:30;;;;;;;50.47;28.93;;;;;;;11.10;100.00;101255.28;1355486;91;21457;-80
2022/11/03 06:58:57;;;;;;;59.80;30.93;;;;;;;11.04;100.00;101252.66;1548592;88;21341;-81
2022/11/03 07:01:33;;;;;;;62.67;33.30;;;;;;;10.98;100.00;101251.87;1390689;88;21377;-81
2022/11/03 07:04:21;;;;;;;62.80;34.83;;;;;;;10.97;100.00;101258.14;1503102;86;21516;-82
2022/11/03 07:06:47;;;;;;;68.47;33.70;;;;;;;10.96;100.00;101257.77;1483428;86;21477;-81
2022/11/03 07:09:20;;;;;;;60.60;32.10;;;;;;;10.90;100.00;101256.48;1484439;86;22526;-82
2022/11/03 07:11:53;;;;;;;70.10;36.20;;;;;;;10.93;100.00;101254.89;1459018;89;22600;-83
2022/11/03 07:14:32;;;;;;;63.33;33.13;;;;;;;11.00;100.00;101256.55;1488316;86;21520;-82
2022/11/03 07:17:03;;;;;;;65.03;34.53;;;;;;;11.07;100.00;101259.86;1486906;86;21477;-81
2022/11/03 07:19:40;;;;;;;69.43;34.60;;;;;;;11.18;100.00;101256.30;1483318;86;21499;-82
2022/11/03 07:22:24;;;;;;;70.97;34.50;;;;;;;11.24;100.00;101253.13;1577684;86;21493;-82
2022/11/03 07:24:58;;;;;;;75.63;37.77;;;;;;;11.30;100.00;101255.24;1536801;86;21669;-81
2022/11/03 07:27:38;;;;;;;65.27;33.50;;;;;;;11.33;100.00;101258.12;1493330;86;21424;-80
2022/11/03 07:30:21;;;;;;;73.90;36.50;;;;;;;11.25;100.00;101258.80;1490734;86;22533;-81
2022/11/03 07:32:53;;;;;;;57.10;30.27;;;;;;;11.23;100.00;101262.55;1489522;86;22408;-82
2022/11/03 07:35:35;;;;;;;73.13;33.73;;;;;;;11.18;100.00;101256.30;1494991;86;22380;-92
2022/11/03 07:38:09;;;;;;;52.53;30.13;;;;;;;11.18;100.00;101251.00;1458614;89;21403;-88
2022/11/03 07:40:36;;;;;;;54.23;32.50;;;;;;;11.15;100.00;101252.59;1478668;87;21396;-92
2022/11/03 07:43:34;;;;;;;54.73;31.20;;;;;;;11.18;100.00;101256.30;1490102;86;21477;-89
2022/11/03 07:46:04;;;;;;;62.30;33.07;;;;;;;11.24;100.00;101254.45;1481453;87;21484;-92
2022/11/03 07:48:47;;;;;;;60.77;33.20;;;;;;;11.31;100.00;101256.11;1483104;87;21594;-88
2022/11/03 07:51:32;;;;;;;58.17;32.17;;;;;;;11.37;100.00;101248.95;1475928;87;22066;-89
2022/11/03 07:54:04;;;;;;;60.80;34.53;;;;;;;11.32;100.00;101245.84;1480695;87;21573;-83
2022/11/03 07:56:40;;;;;;;63.57;33.20;;;;;;;11.24;100.00;101243.84;1478138;86;21582;-85
2022/11/03 07:59:23;;;;;;;64.33;33.93;;;;;;;11.23;100.00;101244.83;1481051;87;21426;-90
2022/11/03 08:01:54;;;;;;;61.37;34.73;;;;;;;11.29;100.00;101239.48;1451052;88;21478;-93
2022/11/03 08:04:33;;;;;;;64.67;35.43;;;;;;;11.30;100.00;101235.37;1478459;87;22330;-91
2022/11/03 08:06:59;;;;;;;67.50;35.77;;;;;;;11.26;100.00;101237.94;1485765;86;21439;-87
2022/11/03 08:09:26;;;;;;;59.30;34.43;;;;;;;11.28;100.00;101229.38;1486540;86;21498;-93
2022/11/03 08:11:52;;;;;;;62.20;33.67;;;;;;;11.34;100.00;101236.45;1461513;89;21434;-90
2022/11/03 08:14:18;;;;;;;59.47;34.73;;;;;;;11.39;100.00;101235.05;1492718;86;21425;-87
2022/11/03 08:16:45;;;;;;;74.40;34.10;;;;;;;11.43;100.00;101235.16;1462322;86;21476;-90
2022/11/03 08:19:12;;;;;;;66.47;34.37;;;;;;;11.50;100.00;101231.48;1491163;86;22372;-94
2022/11/03 08:21:38;;;;;;;66.20;35.77;;;;;;;11.56;100.00;101234.08;1480791;86;21397;-90
2022/11/03 08:24:05;;;;;;;67.53;37.87;;;;;;;11.62;100.00;101227.74;1491880;86;22313;-89
2022/11/03 08:26:31;;;;;;;70.50;36.40;;;;;;;11.66;100.00;101230.50;1464476;86;22512;-91
2022/11/03 08:28:57;;;;;;;70.70;35.77;;;;;;;11.59;100.00;101223.20;1465409;86;21410;-93
2022/11/03 08:31:23;;;;;;;73.63;38.10;;;;;;;11.59;100.00;101233.31;1496727;86;21536;-92
2022/11/03 08:33:49;;;;;;;58.50;35.03;;;;;;;11.62;100.00;101228.23;1454806;86;21508;-91
2022/11/03 08:36:16;;;;;;;65.17;34.90;;;;;;;11.65;100.00;101230.61;1472523;86;21448;-87
2022/11/03 08:38:42;;;;;;;62.73;37.90;;;;;;;11.70;100.00;101227.91;1492136;86;21381;-93
2022/11/03 08:41:08;;;;;;;70.20;34.70;;;;;;;11.74;100.00;101224.03;1495293;86;22416;-92
2022/11/03 08:43:34;;;;;;;69.80;38.00;;;;;;;11.77;100.00;101225.58;1450444;86;21454;-92
2022/11/03 08:46:01;;;;;;;77.80;40.07;;;;;;;11.72;100.00;101217.19;1433956;89;21605;-92
2022/11/03 08:48:27;;;;;;;72.37;37.23;;;;;;;11.68;100.00;101219.28;1465587;88;22506;-92
2022/11/03 08:50:54;;;;;;;61.67;35.17;;;;;;;11.67;100.00;101220.23;1461552;87;21448;-91
2022/11/03 08:53:25;;;;;;;67.83;36.30;;;;;;;11.70;100.00;101221.28;1471359;88;22268;-93
2022/11/03 08:55:55;;;;;;;63.30;32.83;;;;;;;11.73;100.00;101213.55;1548349;86;21613;-89
2022/11/03 08:58:22;;;;;;;60.93;34.90;;;;;;;11.78;100.00;101213.98;1482495;86;21485;-92
2022/11/03 09:00:49;;;;;;;68.07;37.67;;;;;;;11.79;100.00;101213.00;1413519;87;22268;-91
2022/11/03 09:03:15;;;;;;;64.67;36.20;;;;;;;11.86;100.00;101214.67;1484969;87;21419;-91
2022/11/03 09:05:41;;;;;;;62.00;37.27;;;;;;;11.92;100.00;101211.47;1438500;88;22107;-93
2022/11/03 09:08:07;;;;;;;73.60;37.13;;;;;;;11.89;100.00;101211.25;1442714;88;21427;-92
2022/11/03 09:10:34;;;;;;;68.57;38.50;;;;;;;11.83;100.00;101210.44;1465395;86;21543;-91
2022/11/03 09:13:00;;;;;;;60.17;36.03;;;;;;;11.86;100.00;101216.83;1489797;86;22292;-95
2022/11/03 09:15:26;;;;;;;60.83;36.43;;;;;;;11.91;100.00;101215.08;1456868;86;21595;-92
2022/11/03 09:17:52;;;;;;;70.70;37.70;;;;;;;11.95;100.00;101212.52;1478438;86;21513;-93
2022/11/03 09:20:19;;;;;;;70.13;39.27;;;;;;;11.96;100.00;101207.05;1464002;86;21691;-87
2022/11/03 09:22:46;;;;;;;72.30;37.47;;;;;;;11.95;100.00;101204.06;1496862;86;21574;-91
2022/11/03 09:25:12;;;;;;;65.60;38.50;;;;;;;11.99;100.00;101210.42;1501365;86;21410;-94
2022/11/03 09:27:38;;;;;;;68.27;37.00;;;;;;;12.00;100.00;101207.64;1502398;86;21456;-94
2022/11/03 09:30:06;;;;;;;65.80;36.73;;;;;;;12.00;100.00;101206.31;1458822;86;21929;-93
2022/11/03 09:32:33;;;;;;;60.23;35.33;;;;;;;12.00;100.00;101203.66;1504770;86;21514;-86
2022/11/03 09:34:59;;;;;;;66.33;34.73;;;;;;;11.96;100.00;101195.12;1500437;86;21441;-85
2022/11/03 09:37:27;;;;;;;77.67;39.40;;;;;;;11.91;100.00;101195.18;1500802;86;21455;-83
2022/11/03 09:39:53;;;;;;;62.17;35.73;;;;;;;11.93;100.00;101191.91;1499863;86;21635;-82
2022/11/03 09:42:20;;;;;;;63.60;36.40;;;;;;;11.99;100.00;101195.83;1494866;86;21536;-84
2022/11/03 09:44:48;;;;;;;72.90;35.77;;;;;;;12.02;100.00;101189.75;1570918;86;21381;-84
2022/11/03 09:47:28;;;;;;;62.03;34.63;;;;;;;12.08;100.00;101183.05;1502301;86;21536;-81
2022/11/03 09:49:55;;;;;;;65.85;35.63;;;;;;;12.15;100.00;101190.33;1506002;86;21433;-83
2022/11/03 09:52:23;;;;;;;58.60;32.93;;;;;;;12.12;98.42;101185.80;1451322;86;22124;-82
2022/11/03 09:54:54;;;;;;;55.53;34.80;;;;;;;12.15;99.29;101191.66;1504262;86;21417;-83
2022/11/03 09:57:21;;;;;;;54.80;31.42;;;;;;;12.21;99.23;101185.45;1542946;86;21477;-83
2022/11/03 09:59:50;;;;;;;54.77;31.43;;;;;;;12.22;98.85;101187.95;1475457;86;22638;-83
2022/11/03 10:02:37;;;;;;;57.30;31.70;;;;;;;12.27;98.52;101185.72;1498717;86;22275;-84
2022/11/03 10:05:04;;;;;;;58.93;33.73;;;;;;;12.26;98.17;101185.87;1484785;87;21463;-84
2022/11/03 10:07:31;;;;;;;51.87;31.20;;;;;;;12.34;97.77;101178.02;1488818;87;21402;-88
2022/11/03 10:09:59;;;;;;;54.23;32.83;;;;;;;12.32;96.53;101180.00;1486881;87;21477;-93
2022/11/03 10:12:36;;;;;;;59.43;33.17;;;;;;;12.27;95.60;101175.59;1486626;87;21498;-90
2022/11/03 10:15:03;;;;;;;51.33;32.23;;;;;;;12.17;95.72;101175.11;1491328;87;21447;-93
2022/11/03 10:17:30;;;;;;;57.07;33.83;;;;;;;12.13;95.49;101173.70;1473577;87;21439;-87
2022/11/03 10:19:57;;;;;;;68.90;36.57;;;;;;;12.16;96.35;101168.11;1462913;87;21444;-90
2022/11/03 10:22:23;;;;;;;57.17;33.83;;;;;;;12.19;96.54;101175.79;1430651;90;21526;-87
2022/11/03 10:25:12;;;;;;;60.90;34.53;;;;;;;12.23;96.89;101171.53;1471573;87;21975;-91
2022/11/03 10:27:38;;;;;;;47.37;29.93;;;;;;;12.28;96.93;101165.31;1473409;87;22533;-90
2022/11/03 10:30:11;;;;;;;58.07;32.27;;;;;;;12.23;96.33;101172.85;1464502;87;21441;-88
2022/11/03 10:32:38;;;;;;;61.17;33.77;;;;;;;12.23;95.96;101167.55;1462177;88;21463;-89
2022/11/03 10:35:32;;;;;;;52.97;34.07;;;;;;;12.24;95.68;101162.11;1446127;87;21640;-90
2022/11/03 10:38:27;;;;;;;62.90;36.10;;;;;;;12.25;95.76;101162.95;1446744;90;21538;-91
2022/11/03 10:40:54;;;;;;;66.33;35.10;;;;;;;12.23;96.00;101152.95;1446299;90;21671;-91
2022/11/03 10:43:20;;;;;;;58.20;35.13;;;;;;;12.21;95.53;101153.60;1446220;90;22624;-93
2022/11/03 10:45:48;;;;;;;60.97;36.63;;;;;;;12.19;95.94;101150.58;1448023;90;21626;-91
2022/11/03 10:48:14;;;;;;;56.43;33.90;;;;;;;12.17;95.92;101145.92;1448163;90;22191;-91
2022/11/03 10:50:41;;;;;;;66.53;36.27;;;;;;;12.19;96.45;101140.46;1442370;90;21478;-91
2022/11/03 10:53:19;;;;;;;80.43;35.97;;;;;;;12.23;96.70;101135.70;1447383;89;22810;-91
2022/11/03 10:55:46;;;;;;;69.13;38.43;;;;;;;12.23;96.33;101128.60;1443710;90;21477;-92
2022/11/03 10:58:12;;;;;;;68.57;37.40;;;;;;;12.23;96.75;101123.76;1446427;89;21545;-93
2022/11/03 11:00:41;;;;;;;78.33;37.60;;;;;;;12.16;95.50;101124.33;1445292;89;22336;-91
2022/11/03 11:03:07;;;;;;;57.13;34.50;;;;;;;12.15;95.90;101121.34;1442125;90;21434;-88
2022/11/03 11:05:33;;;;;;;71.97;38.17;;;;;;;12.17;95.97;101119.39;1445564;90;21404;-89
2022/11/03 11:08:00;;;;;;;72.53;36.90;;;;;;;12.18;95.83;101118.39;1456269;89;22293;-90
2022/11/03 11:10:30;;;;;;;62.67;37.53;;;;;;;12.24;96.26;101113.51;1456759;89;21463;-92
2022/11/03 11:13:21;;;;;;;68.77;37.83;;;;;;;12.27;95.82;101109.24;1460455;89;22379;-93
2022/11/03 11:15:52;;;;;;;66.97;37.27;;;;;;;12.28;95.42;101097.64;1464440;89;21522;-89
2022/11/03 11:18:31;;;;;;;;;;;;;;;12.29;95.55;101096.67;1456526;89;22239;-89
2022/11/03 11:21:00;;;;;;;64.83;39.57;;;;;;;12.26;96.01;101098.29;1447342;89;20806;-91
2022/11/03 11:23:34;;;;;;;66.57;39.53;;;;;;;12.25;95.83;101096.59;1449625;89;21426;-93
2022/11/03 11:26:32;;;;;;;63.63;35.90;;;;;;;12.25;96.15;101091.29;1467032;87;21805;-89
2022/11/03 11:29:14;;;;;;;68.60;35.90;;;;;;;12.25;96.40;101091.29;1485957;86;21611;-94
2022/11/03 11:31:44;;;;;;;58.77;35.67;;;;;;;12.25;95.89;101088.63;1487797;87;21567;-90
2022/11/03 11:34:22;;;;;;;55.30;35.17;;;;;;;12.28;95.95;101086.53;1489474;87;21640;-90
2022/11/03 11:36:57;;;;;;;67.17;38.23;;;;;;;12.39;96.35;101081.55;1469469;87;21515;-93
2022/11/03 11:39:29;;;;;;;65.73;37.53;;;;;;;12.51;96.36;101075.58;1470684;88;21479;-90
2022/11/03 11:42:12;;;;;;;62.00;34.40;;;;;;;12.55;94.62;101069.84;1474963;88;21538;-93